Time;durP1;ratioP1;P1;durP2;ratioP2;P2;SDS_P1;SDS_P2;PMS_P1;PMS_P2;Temp;Humidity;BMP_temperature;BMP_pressure;BME280_temperature;BME280_humidity;BME280_pressure;Samples;Min_cycle;Max_cycle;Signal;HPM_P1;HPM_P2
2023/09/13 00:02:23;;;;;;;11.30;2.88;;;18.10;99.90;;;;;;5027706;28;20049;-79
2023/09/13 00:04:48;;;;;;;8.05;2.60;;;18.10;99.90;;;;;;5030491;28;20041;-78
2023/09/13 00:07:14;;;;;;;14.13;3.33;;;18.00;99.90;;;;;;5023452;28;20111;-78
2023/09/13 00:09:41;;;;;;;7.97;3.33;;;18.00;99.90;;;;;;5013851;28;21748;-78
2023/09/13 00:12:10;;;;;;;11.75;3.20;;;18.00;99.90;;;;;;5050393;28;20045;-78
2023/09/13 00:14:36;;;;;;;11.68;2.42;;;18.00;99.90;;;;;;5039859;28;20064;-79
2023/09/13 00:17:02;;;;;;;10.43;2.60;;;17.90;99.90;;;;;;5050636;28;20038;-77
2023/09/13 00:19:28;;;;;;;8.10;2.45;;;18.00;99.90;;;;;;5026913;28;20052;-79
2023/09/13 00:21:54;;;;;;;10.73;2.75;;;17.90;99.90;;;;;;5011757;28;20033;-78
2023/09/13 00:24:20;;;;;;;13.73;3.35;;;17.90;99.90;;;;;;5027946;28;20076;-77
2023/09/13 00:26:46;;;;;;;12.57;2.95;;;17.90;99.90;;;;;;5026827;28;20045;-79
2023/09/13 00:29:12;;;;;;;13.50;3.40;;;17.80;99.90;;;;;;5022979;28;20049;-79
2023/09/13 00:31:37;;;;;;;9.50;2.63;;;17.80;99.90;;;;;;5050522;28;20081;-79
2023/09/13 00:34:03;;;;;;;11.82;3.72;;;17.80;99.90;;;;;;5025651;28;20110;-78
2023/09/13 00:36:29;;;;;;;13.65;2.85;;;17.80;99.90;;;;;;5037321;28;21021;-79
2023/09/13 00:38:55;;;;;;;8.65;2.40;;;17.80;99.90;;;;;;5030080;28;20450;-80
2023/09/13 00:41:21;;;;;;;9.40;2.50;;;17.70;99.90;;;;;;5013635;28;20131;-78
2023/09/13 00:43:47;;;;;;;10.52;2.65;;;17.70;99.90;;;;;;5052904;28;20047;-78
2023/09/13 00:46:13;;;;;;;13.07;2.67;;;17.70;99.90;;;;;;5048181;28;20053;-77
2023/09/13 00:48:41;;;;;;;11.15;2.55;;;17.70;99.90;;;;;;5048973;28;20052;-78
2023/09/13 00:51:09;;;;;;;15.68;3.20;;;17.70;99.90;;;;;;5017654;28;20700;-78
2023/09/13 00:53:36;;;;;;;12.93;2.60;;;17.70;99.90;;;;;;5051823;28;20487;-77
2023/09/13 00:56:02;;;;;;;11.18;2.78;;;17.60;99.90;;;;;;5046892;28;20052;-78
2023/09/13 00:58:30;;;;;;;12.68;3.10;;;17.70;99.90;;;;;;5010638;28;20053;-79
2023/09/13 01:00:56;;;;;;;10.98;2.40;;;17.60;99.90;;;;;;5046785;28;20477;-78
2023/09/13 01:03:23;;;;;;;11.30;2.88;;;17.60;99.90;;;;;;5047468;28;20048;-77
2023/09/13 01:05:52;;;;;;;12.65;2.92;;;17.60;99.90;;;;;;5048900;28;20037;-78
2023/09/13 01:08:19;;;;;;;12.43;3.00;;;17.60;99.90;;;;;;5048853;28;20041;-78
2023/09/13 01:10:46;;;;;;;12.35;3.15;;;17.50;99.90;;;;;;5045930;28;20052;-78
2023/09/13 01:13:12;;;;;;;11.43;2.72;;;17.60;99.90;;;;;;5036616;28;20690;-78
2023/09/13 01:15:51;;;;;;;10.60;2.70;;;17.50;99.90;;;;;;5039651;28;20037;-78
2023/09/13 01:18:28;;;;;;;7.47;3.03;;;17.50;99.90;;;;;;5024408;28;20148;-79
2023/09/13 01:21:24;;;;;;;14.77;3.05;;;17.50;99.90;;;;;;5040588;28;20056;-77
2023/09/13 01:24:18;;;;;;;10.23;2.60;;;17.50;99.90;;;;;;5047878;28;20045;-78
2023/09/13 01:26:54;;;;;;;6.53;2.45;;;17.50;99.90;;;;;;5039405;28;20072;-79
2023/09/13 01:29:20;;;;;;;10.45;2.42;;;17.40;99.90;;;;;;5053538;28;20045;-77
2023/09/13 01:31:46;;;;;;;9.52;2.25;;;17.50;99.90;;;;;;5028038;28;20039;-78
2023/09/13 01:34:12;;;;;;;8.10;2.35;;;17.40;99.90;;;;;;5010243;28;20053;-78
2023/09/13 01:36:37;;;;;;;7.78;2.50;;;17.40;99.90;;;;;;5054978;28;20517;-79
2023/09/13 01:39:04;;;;;;;7.10;2.40;;;17.40;99.90;;;;;;5033570;28;20072;-78
2023/09/13 01:41:36;;;;;;;7.50;2.17;;;17.40;99.90;;;;;;5030841;28;20047;-79
2023/09/13 01:44:03;;;;;;;8.00;2.20;;;17.40;99.90;;;;;;5032794;28;20052;-77
2023/09/13 01:46:35;;;;;;;7.95;1.80;;;17.40;99.90;;;;;;5010114;28;20080;-79
2023/09/13 01:49:02;;;;;;;6.75;1.90;;;17.40;99.90;;;;;;5015108;28;20049;-78
2023/09/13 01:51:28;;;;;;;8.93;2.10;;;17.40;99.90;;;;;;5030821;28;20127;-78
2023/09/13 01:53:56;;;;;;;9.80;2.10;;;17.30;99.90;;;;;;5025464;28;20145;-78
2023/09/13 01:56:23;;;;;;;10.65;2.40;;;17.30;99.90;;;;;;5021482;28;20034;-78
2023/09/13 01:58:49;;;;;;;11.68;1.98;;;17.30;99.90;;;;;;5024184;28;20052;-78
2023/09/13 02:01:15;;;;;;;9.32;2.17;;;17.30;99.90;;;;;;5037967;28;20042;-77
2023/09/13 02:03:42;;;;;;;6.00;2.00;;;17.30;99.90;;;;;;5052078;28;20136;-79
2023/09/13 02:06:07;;;;;;;7.20;2.05;;;17.30;99.90;;;;;;5042879;28;20052;-79
2023/09/13 02:08:33;;;;;;;5.93;1.88;;;17.30;99.90;;;;;;5050150;28;20041;-79
2023/09/13 02:10:59;;;;;;;9.23;2.30;;;17.30;99.90;;;;;;5031031;28;20582;-79
2023/09/13 02:13:25;;;;;;;9.48;2.25;;;17.20;99.90;;;;;;5025697;28;20059;-78
2023/09/13 02:15:51;;;;;;;4.32;1.95;;;17.20;99.90;;;;;;5033859;28;20045;-78
2023/09/13 02:18:17;;;;;;;6.72;2.00;;;17.20;99.90;;;;;;5030103;28;20089;-78
2023/09/13 02:20:42;;;;;;;11.43;2.70;;;17.20;99.90;;;;;;5030466;28;20043;-79
2023/09/13 02:23:08;;;;;;;9.65;2.42;;;17.10;99.90;;;;;;5039689;28;20124;-79
2023/09/13 02:25:38;;;;;;;7.25;1.75;;;17.20;99.90;;;;;;5027636;28;20534;-79
2023/09/13 02:28:04;;;;;;;12.73;2.42;;;17.10;99.90;;;;;;5017961;28;20061;-79
2023/09/13 02:30:33;;;;;;;10.10;1.70;;;17.10;99.90;;;;;;5035171;28;20040;-78
2023/09/13 02:32:59;;;;;;;7.85;2.08;;;17.10;99.90;;;;;;5039043;28;20045;-79
2023/09/13 02:35:24;;;;;;;9.85;2.15;;;17.00;99.90;;;;;;5028127;28;20107;-79
2023/09/13 02:37:50;;;;;;;7.07;2.25;;;17.10;99.90;;;;;;5015640;28;20040;-79
2023/09/13 02:40:16;;;;;;;7.22;2.10;;;17.00;99.90;;;;;;5027262;28;20049;-78
2023/09/13 02:42:42;;;;;;;11.15;2.03;;;17.00;99.90;;;;;;5034005;28;20038;-78
2023/09/13 02:45:08;;;;;;;7.40;2.42;;;17.10;99.90;;;;;;5025469;28;20041;-77
2023/09/13 02:47:34;;;;;;;9.70;2.85;;;17.10;99.90;;;;;;5015716;28;20045;-77
2023/09/13 02:49:59;;;;;;;6.88;2.33;;;17.10;99.90;;;;;;5035330;28;20056;-78
2023/09/13 02:52:30;;;;;;;8.45;2.33;;;17.10;99.90;;;;;;5022571;28;20076;-76
2023/09/13 02:54:56;;;;;;;15.50;3.10;;;17.10;99.90;;;;;;5023647;28;20049;-79
2023/09/13 02:57:22;;;;;;;15.27;3.08;;;17.00;99.90;;;;;;5018365;28;20057;-82
2023/09/13 02:59:48;;;;;;;9.10;2.85;;;17.00;99.90;;;;;;5010934;28;20428;-81
2023/09/13 03:02:13;;;;;;;12.52;3.08;;;16.90;99.90;;;;;;5028867;28;20041;-82
2023/09/13 03:04:40;;;;;;;9.60;3.03;;;16.90;99.90;;;;;;5023302;28;20511;-85
2023/09/13 03:07:06;;;;;;;10.02;3.13;;;16.70;99.90;;;;;;5029876;28;20106;-83
2023/09/13 03:09:31;;;;;;;6.13;2.65;;;16.70;99.90;;;;;;5032503;28;20045;-77
2023/09/13 03:11:57;;;;;;;8.35;3.20;;;16.60;99.90;;;;;;5027062;28;20046;-80
2023/09/13 03:14:23;;;;;;;10.35;3.22;;;16.50;99.90;;;;;;5035164;28;20520;-79
2023/09/13 03:16:48;;;;;;;15.60;3.72;;;16.50;99.90;;;;;;5029196;28;20056;-82
2023/09/13 03:19:14;;;;;;;10.95;3.30;;;16.60;99.90;;;;;;5021289;28;20045;-77
2023/09/13 03:21:44;;;;;;;7.82;2.83;;;16.40;99.90;;;;;;5035674;28;20194;-76
2023/09/13 03:24:10;;;;;;;7.40;2.50;;;16.40;99.90;;;;;;5021531;28;20057;-79
2023/09/13 03:26:35;;;;;;;8.40;2.67;;;16.40;99.90;;;;;;5027322;28;20045;-81
2023/09/13 03:29:02;;;;;;;8.95;2.45;;;16.40;99.90;;;;;;5026525;28;20061;-80
2023/09/13 03:31:28;;;;;;;9.80;2.53;;;16.40;99.90;;;;;;5025649;28;20120;-78
2023/09/13 03:33:55;;;;;;;6.65;2.20;;;16.30;99.90;;;;;;5010859;28;20052;-76
2023/09/13 03:36:21;;;;;;;8.00;2.33;;;16.30;99.90;;;;;;5025528;28;20076;-78
2023/09/13 03:38:47;;;;;;;6.95;2.40;;;16.30;99.90;;;;;;5022801;28;20055;-77
2023/09/13 03:41:18;;;;;;;7.72;2.40;;;16.30;99.90;;;;;;5004577;28;20045;-81
2023/09/13 03:43:44;;;;;;;6.38;2.25;;;16.20;99.90;;;;;;5019927;28;20046;-80
2023/09/13 03:46:09;;;;;;;8.00;3.17;;;16.30;99.90;;;;;;5022868;28;20666;-80
2023/09/13 03:48:36;;;;;;;10.02;2.92;;;16.30;99.90;;;;;;5032377;28;20045;-80
2023/09/13 03:51:03;;;;;;;14.10;2.92;;;16.20;99.90;;;;;;5008311;28;20061;-80
2023/09/13 03:53:28;;;;;;;11.00;2.90;;;16.10;99.90;;;;;;5023111;28;20091;-80
2023/09/13 03:55:54;;;;;;;13.00;2.75;;;16.10;99.90;;;;;;5032615;28;20045;-78
2023/09/13 03:58:21;;;;;;;12.75;2.70;;;16.20;99.90;;;;;;5019889;28;20064;-81
2023/09/13 04:00:47;;;;;;;12.93;2.35;;;16.10;99.90;;;;;;5025664;28;20049;-80
2023/09/13 04:03:14;;;;;;;12.73;2.80;;;16.00;99.90;;;;;;5029705;28;20132;-78
2023/09/13 04:05:40;;;;;;;7.25;2.22;;;16.00;99.90;;;;;;5008915;28;20048;-82
2023/09/13 04:08:06;;;;;;;9.35;2.53;;;16.00;99.90;;;;;;5024288;28;20045;-79
2023/09/13 04:10:32;;;;;;;6.35;2.63;;;15.90;99.90;;;;;;5023179;28;20195;-78
2023/09/13 04:12:57;;;;;;;10.45;2.53;;;15.90;99.90;;;;;;5020767;28;20512;-77
2023/09/13 04:15:23;;;;;;;9.68;2.10;;;15.90;99.90;;;;;;5017958;28;21699;-76
2023/09/13 04:17:49;;;;;;;13.07;2.88;;;15.80;99.90;;;;;;5015669;28;20046;-75
2023/09/13 04:20:15;;;;;;;7.60;2.22;;;15.90;99.90;;;;;;5016582;28;20054;-75
2023/09/13 04:22:41;;;;;;;11.88;2.75;;;15.80;99.90;;;;;;5014062;28;20037;-74
2023/09/13 04:25:08;;;;;;;16.30;2.42;;;15.90;99.90;;;;;;5025333;28;20038;-74
2023/09/13 04:27:34;;;;;;;9.98;2.60;;;15.80;99.90;;;;;;5022693;28;20132;-75
2023/09/13 04:30:00;;;;;;;11.60;4.22;;;15.80;99.90;;;;;;5007067;28;20128;-74
2023/09/13 04:32:25;;;;;;;13.00;3.25;;;15.90;99.90;;;;;;5018968;28;20081;-74
2023/09/13 04:34:52;;;;;;;12.90;3.20;;;15.80;99.90;;;;;;5020956;28;20394;-73
2023/09/13 04:37:17;;;;;;;11.25;3.30;;;15.70;99.90;;;;;;5015573;28;20100;-73
2023/09/13 04:39:43;;;;;;;11.82;3.72;;;15.80;99.90;;;;;;5006001;28;20584;-71
2023/09/13 04:42:10;;;;;;;12.00;2.92;;;15.70;99.90;;;;;;5015507;28;20057;-75
2023/09/13 04:44:36;;;;;;;12.80;3.10;;;15.70;99.90;;;;;;5026660;28;20034;-74
2023/09/13 04:47:01;;;;;;;11.07;3.03;;;15.60;99.90;;;;;;5017924;28;20041;-75
2023/09/13 04:49:27;;;;;;;17.05;4.13;;;15.50;99.90;;;;;;5031080;28;20088;-71
2023/09/13 04:51:54;;;;;;;13.65;3.70;;;15.40;99.90;;;;;;5032930;28;20184;-70
2023/09/13 04:54:22;;;;;;;18.00;3.95;;;15.40;99.90;;;;;;5042105;28;20124;-72
2023/09/13 04:56:48;;;;;;;11.23;3.00;;;15.30;99.90;;;;;;5036748;28;20050;-72
2023/09/13 04:59:14;;;;;;;12.32;3.50;;;15.20;99.90;;;;;;5025747;28;20045;-72
2023/09/13 05:01:40;;;;;;;18.23;3.65;;;15.20;99.90;;;;;;5026610;28;20629;-73
2023/09/13 05:04:06;;;;;;;12.75;3.42;;;15.10;99.90;;;;;;5052928;28;20090;-72
2023/09/13 05:06:31;;;;;;;14.32;3.33;;;15.10;99.90;;;;;;5036666;28;20044;-70
2023/09/13 05:08:57;;;;;;;15.00;3.72;;;15.00;99.90;;;;;;5030064;28;20153;-73
2023/09/13 05:11:23;;;;;;;13.02;3.13;;;15.00;99.90;;;;;;5015282;28;20035;-72
2023/09/13 05:13:50;;;;;;;12.75;3.35;;;15.00;99.90;;;;;;5043004;28;20048;-73
2023/09/13 05:16:19;;;;;;;18.83;3.15;;;14.90;99.90;;;;;;5008863;28;20030;-71
2023/09/13 05:18:48;;;;;;;13.48;3.38;;;14.80;99.90;;;;;;5044935;28;20051;-72
2023/09/13 05:21:17;;;;;;;14.73;3.75;;;14.80;99.90;;;;;;5038582;28;20041;-72
2023/09/13 05:23:42;;;;;;;15.95;4.10;;;14.80;99.90;;;;;;5053030;28;20421;-72
2023/09/13 05:26:08;;;;;;;12.75;3.80;;;14.80;99.90;;;;;;5033084;28;20071;-71
2023/09/13 05:28:34;;;;;;;18.70;4.53;;;14.70;99.90;;;;;;5041259;28;20463;-72
2023/09/13 05:31:00;;;;;;;14.35;4.07;;;14.80;99.90;;;;;;5030849;28;20041;-71
2023/09/13 05:33:26;;;;;;;15.00;4.05;;;14.70;99.90;;;;;;5025477;28;20029;-71
2023/09/13 05:35:52;;;;;;;15.00;5.13;;;14.70;99.90;;;;;;5056147;28;20033;-71
2023/09/13 05:38:18;;;;;;;12.95;3.70;;;14.70;99.90;;;;;;5037628;28;20060;-71
2023/09/13 05:40:43;;;;;;;19.42;4.30;;;14.70;99.90;;;;;;5042337;28;20160;-71
2023/09/13 05:43:09;;;;;;;12.60;4.13;;;14.80;99.90;;;;;;5048618;28;20079;-72
2023/09/13 05:45:35;;;;;;;12.88;3.35;;;14.80;99.90;;;;;;5030329;28;20060;-71
2023/09/13 05:48:02;;;;;;;13.07;3.08;;;14.80;99.90;;;;;;5030838;28;20044;-71
2023/09/13 05:50:28;;;;;;;12.13;3.58;;;14.70;99.90;;;;;;5029115;28;20053;-71
2023/09/13 05:52:54;;;;;;;13.50;2.90;;;14.80;99.90;;;;;;5031408;28;20037;-71
2023/09/13 05:55:20;;;;;;;15.70;3.40;;;14.80;99.90;;;;;;5035431;28;20056;-71
2023/09/13 05:57:46;;;;;;;12.13;3.28;;;14.80;99.90;;;;;;5044834;28;20045;-71
2023/09/13 06:00:13;;;;;;;8.23;2.78;;;14.80;99.90;;;;;;5035408;28;20190;-71
2023/09/13 06:02:39;;;;;;;8.68;2.47;;;14.80;99.90;;;;;;5017340;28;20041;-70
2023/09/13 06:05:06;;;;;;;10.50;2.65;;;14.90;99.90;;;;;;5031361;28;20115;-72
2023/09/13 06:07:31;;;;;;;11.73;2.40;;;14.80;99.90;;;;;;5049551;28;20570;-71
2023/09/13 06:10:00;;;;;;;8.65;2.35;;;14.90;99.90;;;;;;5048072;28;20055;-72
2023/09/13 06:12:25;;;;;;;6.50;2.00;;;14.80;99.90;;;;;;5031927;28;20136;-72
2023/09/13 06:14:53;;;;;;;13.98;2.60;;;14.80;99.90;;;;;;5029952;28;20109;-70
2023/09/13 06:17:19;;;;;;;11.40;2.45;;;14.80;99.90;;;;;;5030277;28;20067;-71
2023/09/13 06:19:45;;;;;;;8.00;2.08;;;14.80;99.90;;;;;;5013113;28;20045;-71
2023/09/13 06:22:10;;;;;;;15.32;2.67;;;14.80;99.90;;;;;;5046010;28;20112;-71
2023/09/13 06:24:36;;;;;;;9.88;2.35;;;14.90;99.90;;;;;;5047375;28;20044;-71
2023/09/13 06:27:01;;;;;;;7.53;1.83;;;14.80;99.90;;;;;;5048333;28;20095;-71
2023/09/13 06:29:27;;;;;;;7.43;2.15;;;14.90;99.90;;;;;;5025602;28;20094;-72
2023/09/13 06:31:54;;;;;;;7.03;2.05;;;14.80;99.90;;;;;;5044584;28;20040;-72
2023/09/13 06:34:20;;;;;;;6.53;1.90;;;14.80;99.90;;;;;;5051233;28;20048;-73
2023/09/13 06:36:48;;;;;;;6.05;1.98;;;14.80;99.90;;;;;;5047928;28;20037;-72
2023/09/13 06:39:14;;;;;;;10.15;2.17;;;14.80;99.90;;;;;;5047639;28;20067;-73
2023/09/13 06:41:40;;;;;;;8.38;2.60;;;14.90;99.90;;;;;;5043974;28;20045;-72
2023/09/13 06:44:09;;;;;;;12.70;2.10;;;14.90;99.90;;;;;;5045367;28;20067;-73
2023/09/13 06:46:36;;;;;;;7.97;2.28;;;14.80;99.90;;;;;;5044759;28;20049;-72
2023/09/13 06:49:03;;;;;;;7.65;2.20;;;14.90;99.90;;;;;;5042701;28;20179;-74
2023/09/13 06:51:29;;;;;;;6.78;2.03;;;14.90;99.90;;;;;;5025066;28;20053;-73
2023/09/13 06:53:55;;;;;;;10.30;2.13;;;14.90;99.90;;;;;;5048069;28;20048;-72
2023/09/13 06:56:20;;;;;;;8.55;1.83;;;14.90;99.90;;;;;;5047745;28;20094;-73
2023/09/13 06:58:46;;;;;;;8.25;1.92;;;14.90;99.90;;;;;;5053229;28;20053;-73
2023/09/13 07:01:13;;;;;;;6.68;1.83;;;14.90;99.90;;;;;;5049352;28;20078;-72
2023/09/13 07:03:38;;;;;;;13.98;2.30;;;14.80;99.90;;;;;;5044874;28;20056;-73
2023/09/13 07:06:04;;;;;;;7.57;1.92;;;14.90;99.90;;;;;;5041095;28;20045;-72
2023/09/13 07:08:30;;;;;;;8.07;1.80;;;15.00;99.90;;;;;;5049111;28;20044;-72
2023/09/13 07:10:56;;;;;;;9.55;1.77;;;15.00;99.90;;;;;;5046850;28;20488;-72
2023/09/13 07:13:22;;;;;;;7.43;1.80;;;15.00;99.90;;;;;;5048578;28;20056;-72
2023/09/13 07:15:48;;;;;;;6.45;2.00;;;14.90;99.90;;;;;;5040999;28;20041;-73
2023/09/13 07:18:14;;;;;;;5.28;1.38;;;15.00;99.90;;;;;;5051769;28;20510;-78
2023/09/13 07:20:40;;;;;;;5.25;1.67;;;15.20;99.90;;;;;;5043164;28;20558;-75
2023/09/13 07:23:06;;;;;;;12.07;2.00;;;15.30;99.90;;;;;;5031156;28;20045;-74
2023/09/13 07:25:31;;;;;;;11.55;2.65;;;15.20;99.90;;;;;;5027736;28;20084;-79
2023/09/13 07:27:58;;;;;;;8.27;2.28;;;15.30;99.90;;;;;;5045706;28;20051;-73
2023/09/13 07:30:24;;;;;;;5.47;1.48;;;15.30;99.90;;;;;;5030291;28;20053;-73
2023/09/13 07:32:49;;;;;;;9.30;1.70;;;15.40;99.90;;;;;;5027481;28;20067;-73
2023/09/13 07:35:20;;;;;;;8.85;1.88;;;15.40;99.90;;;;;;5033622;28;20044;-73
2023/09/13 07:37:47;;;;;;;9.32;1.90;;;15.40;99.90;;;;;;5014508;28;20488;-73
2023/09/13 07:40:13;;;;;;;10.23;2.63;;;15.50;99.90;;;;;;5046185;28;20037;-73
2023/09/13 07:42:38;;;;;;;8.32;2.10;;;15.60;99.90;;;;;;5045020;28;20087;-72
2023/09/13 07:45:05;;;;;;;7.63;1.80;;;15.60;99.90;;;;;;5045580;28;20491;-72
2023/09/13 07:47:31;;;;;;;8.27;2.78;;;15.70;99.90;;;;;;5042982;28;20052;-72
2023/09/13 07:50:00;;;;;;;10.13;2.58;;;15.60;99.90;;;;;;5038054;28;20049;-72
2023/09/13 07:52:26;;;;;;;12.35;2.20;;;15.70;99.90;;;;;;5024351;28;20451;-72
2023/09/13 07:54:52;;;;;;;8.52;2.30;;;15.80;99.90;;;;;;5038988;28;20071;-73
2023/09/13 07:57:18;;;;;;;14.02;2.70;;;15.90;99.90;;;;;;5039919;28;20053;-71
2023/09/13 07:59:43;;;;;;;13.25;2.50;;;15.80;99.90;;;;;;5042442;28;20143;-72
2023/09/13 08:02:09;;;;;;;20.88;3.72;;;15.90;99.90;;;;;;5047226;28;20044;-73
2023/09/13 08:04:35;;;;;;;14.52;2.90;;;15.80;99.90;;;;;;5032009;28;20178;-72
2023/09/13 08:07:02;;;;;;;14.32;3.67;;;15.80;99.90;;;;;;5044543;28;20535;-71
2023/09/13 08:09:28;;;;;;;14.73;3.53;;;15.80;99.90;;;;;;5047518;28;20056;-71
2023/09/13 08:11:53;;;;;;;17.45;4.32;;;15.70;99.90;;;;;;5046927;28;20119;-71
2023/09/13 08:14:19;;;;;;;11.05;3.50;;;15.80;99.90;;;;;;5043803;28;20408;-72
2023/09/13 08:16:45;;;;;;;13.80;4.22;;;15.70;99.90;;;;;;5043490;28;20189;-72
2023/09/13 08:19:12;;;;;;;14.73;3.38;;;15.60;99.90;;;;;;5049773;28;20450;-85
2023/09/13 08:21:38;;;;;;;11.27;3.40;;;15.70;99.90;;;;;;5040836;28;20040;-67
2023/09/13 08:24:04;;;;;;;11.82;3.90;;;15.60;99.90;;;;;;5017766;28;20634;-70
2023/09/13 08:26:30;;;;;;;20.60;3.95;;;15.60;99.90;;;;;;5028737;28;20106;-71
2023/09/13 08:28:57;;;;;;;23.35;4.43;;;15.60;99.90;;;;;;5027968;28;20102;-73
2023/09/13 08:31:26;;;;;;;13.07;3.88;;;15.60;99.90;;;;;;5049069;28;20045;-72
2023/09/13 08:33:53;;;;;;;15.13;3.53;;;15.60;99.90;;;;;;5046787;28;20076;-72
2023/09/13 08:36:18;;;;;;;12.18;3.70;;;15.50;99.90;;;;;;5049169;28;20055;-73
2023/09/13 08:38:44;;;;;;;14.85;3.75;;;15.50;99.90;;;;;;5055223;28;20049;-74
2023/09/13 08:41:11;;;;;;;15.70;3.63;;;15.60;99.90;;;;;;5059077;28;20044;-74
2023/09/13 08:43:38;;;;;;;10.35;3.30;;;15.50;99.90;;;;;;5051246;28;20064;-72
2023/09/13 08:46:06;;;;;;;16.08;4.05;;;15.60;99.90;;;;;;5030292;28;20048;-72
2023/09/13 08:48:33;;;;;;;13.52;4.25;;;15.60;99.90;;;;;;5048824;28;20059;-73
2023/09/13 08:51:02;;;;;;;8.63;3.00;;;15.70;99.90;;;;;;5032627;28;20087;-73
2023/09/13 08:53:29;;;;;;;12.85;3.97;;;15.70;99.90;;;;;;5021784;28;20045;-73
2023/09/13 08:55:55;;;;;;;14.70;3.58;;;15.70;99.90;;;;;;5050076;28;20051;-74
2023/09/13 08:58:22;;;;;;;11.85;2.97;;;15.70;99.90;;;;;;5053918;28;20060;-74
2023/09/13 09:00:51;;;;;;;10.18;3.75;;;15.60;99.90;;;;;;5048695;28;20400;-75
2023/09/13 09:03:21;;;;;;;10.10;3.20;;;15.50;99.90;;;;;;5060166;28;20045;-73
2023/09/13 09:05:47;;;;;;;13.48;3.42;;;15.40;99.90;;;;;;5052030;28;20052;-74
2023/09/13 09:08:13;;;;;;;16.52;3.50;;;15.30;99.90;;;;;;5043978;28;20707;-73
2023/09/13 09:10:41;;;;;;;10.27;3.40;;;15.30;99.90;;;;;;5048053;28;20049;-73
2023/09/13 09:13:10;;;;;;;10.05;2.85;;;15.40;99.90;;;;;;5052590;28;20045;-73
2023/09/13 09:15:37;;;;;;;10.88;2.70;;;15.40;99.90;;;;;;5049552;28;20120;-73
2023/09/13 09:18:07;;;;;;;10.45;3.00;;;15.50;99.90;;;;;;5051405;28;20037;-74
2023/09/13 09:20:37;;;;;;;9.05;2.88;;;15.60;99.90;;;;;;5051319;28;20090;-74
2023/09/13 09:23:05;;;;;;;9.48;3.03;;;15.70;99.90;;;;;;5055420;28;20049;-74
2023/09/13 09:25:31;;;;;;;9.68;2.80;;;15.80;99.90;;;;;;5053328;28;20481;-74
2023/09/13 09:27:57;;;;;;;10.07;3.22;;;16.00;99.90;;;;;;5046860;28;20129;-74
2023/09/13 09:30:34;;;;;;;10.60;2.83;;;16.10;99.90;;;;;;5041827;28;20063;-74
2023/09/13 09:33:04;;;;;;;7.50;2.92;;;16.20;99.90;;;;;;5057114;28;20097;-74
2023/09/13 09:35:31;;;;;;;7.50;2.90;;;16.20;99.90;;;;;;5054286;28;20048;-75
2023/09/13 09:37:57;;;;;;;8.57;3.17;;;16.30;99.90;;;;;;5051390;28;20083;-74
2023/09/13 09:40:23;;;;;;;5.47;2.47;;;16.40;99.90;;;;;;5051171;28;20064;-74
2023/09/13 09:42:56;;;;;;;6.75;2.75;;;16.40;99.90;;;;;;5026138;28;20487;-73
2023/09/13 09:45:22;;;;;;;5.68;2.60;;;16.50;99.90;;;;;;5048442;28;20128;-72
2023/09/13 09:47:50;;;;;;;7.55;3.28;;;16.60;99.90;;;;;;5040432;28;20042;-73
2023/09/13 09:50:15;;;;;;;10.07;2.67;;;16.80;99.90;;;;;;5043272;28;20570;-72
2023/09/13 09:52:42;;;;;;;8.77;3.20;;;17.10;99.90;;;;;;5046731;28;20041;-73
2023/09/13 09:55:13;;;;;;;7.72;2.97;;;17.30;99.90;;;;;;5048279;28;20044;-74
2023/09/13 09:57:46;;;;;;;8.65;4.10;;;17.50;99.90;;;;;;5043823;28;20087;-75
2023/09/13 10:00:13;;;;;;;11.50;4.32;;;17.60;99.90;;;;;;5048535;28;20077;-73
2023/09/13 10:02:38;;;;;;;9.68;3.33;;;17.70;99.90;;;;;;5049235;28;20064;-74
2023/09/13 10:05:05;;;;;;;7.13;3.75;;;17.80;99.90;;;;;;5046092;28;20037;-78
2023/09/13 10:07:40;;;;;;;8.73;3.28;;;17.80;99.90;;;;;;5042581;28;20060;-75
2023/09/13 10:10:09;;;;;;;7.65;3.47;;;17.90;99.90;;;;;;5042436;28;20139;-76
2023/09/13 10:12:47;;;;;;;6.28;3.15;;;18.00;99.90;;;;;;5046494;28;20121;-76
2023/09/13 10:15:16;;;;;;;7.15;3.38;;;18.00;99.90;;;;;;5026258;28;20377;-79
2023/09/13 10:17:43;;;;;;;10.10;3.80;;;18.00;99.90;;;;;;5049162;28;20068;-74
2023/09/13 10:20:11;;;;;;;8.20;3.40;;;18.10;99.90;;;;;;5051656;28;20570;-75
2023/09/13 10:22:39;;;;;;;10.15;3.40;;;18.10;99.90;;;;;;5023980;28;20504;-74
2023/09/13 10:25:09;;;;;;;7.53;3.10;;;18.10;99.90;;;;;;5051084;28;20040;-74
2023/09/13 10:27:36;;;;;;;6.45;3.35;;;18.20;99.90;;;;;;5043090;28;20042;-75
2023/09/13 10:30:03;;;;;;;8.88;3.00;;;18.30;99.90;;;;;;5046913;28;20049;-75
2023/09/13 10:32:47;;;;;;;8.82;2.83;;;18.30;99.90;;;;;;5046999;28;20079;-75
2023/09/13 10:35:15;;;;;;;8.23;2.67;;;18.30;99.90;;;;;;5052141;28;20040;-74
2023/09/13 10:37:49;;;;;;;10.93;2.97;;;18.40;99.90;;;;;;5011521;28;20045;-75
2023/09/13 10:40:22;;;;;;;9.18;2.55;;;18.40;99.90;;;;;;5055329;28;20033;-74
2023/09/13 10:42:48;;;;;;;10.20;2.90;;;18.10;99.90;;;;;;5028552;28;20501;-76
2023/09/13 10:45:18;;;;;;;9.32;2.80;;;18.00;99.90;;;;;;5044886;28;20042;-74
2023/09/13 10:47:47;;;;;;;6.18;2.95;;;18.10;99.90;;;;;;5027318;28;20051;-77
2023/09/13 10:50:15;;;;;;;8.20;2.90;;;18.20;99.90;;;;;;5049657;28;20090;-74
2023/09/13 10:52:43;;;;;;;13.57;2.80;;;18.30;99.90;;;;;;5024657;28;20055;-81
2023/09/13 10:55:10;;;;;;;8.85;2.25;;;18.30;99.90;;;;;;5028632;28;20040;-78
2023/09/13 10:57:39;;;;;;;9.50;2.55;;;18.30;99.90;;;;;;5020347;28;20037;-78
2023/09/13 11:00:11;;;;;;;8.45;2.10;;;18.40;99.90;;;;;;5044228;28;20080;-75
2023/09/13 11:02:41;;;;;;;9.65;3.22;;;18.50;99.90;;;;;;5050244;28;20048;-74
2023/09/13 11:05:09;;;;;;;9.05;2.40;;;18.60;99.90;;;;;;5021756;28;20080;-75
2023/09/13 11:07:41;;;;;;;10.32;2.70;;;18.80;99.90;;;;;;5024124;28;20059;-78
2023/09/13 11:10:12;;;;;;;5.97;2.20;;;19.00;99.90;;;;;;5039360;28;20065;-75
2023/09/13 11:12:38;;;;;;;8.02;2.10;;;19.20;99.90;;;;;;5026567;28;20059;-76
2023/09/13 11:15:21;;;;;;;7.90;2.20;;;19.40;99.90;;;;;;5045880;28;20087;-75
2023/09/13 11:17:47;;;;;;;7.13;2.22;;;19.50;99.90;;;;;;5048647;28;20037;-75
2023/09/13 11:20:37;;;;;;;7.63;2.10;;;19.60;99.90;;;;;;5044735;28;20037;-75
2023/09/13 11:23:06;;;;;;;10.10;2.38;;;19.60;99.90;;;;;;5050062;28;20138;-73
2023/09/13 11:25:40;;;;;;;7.50;1.90;;;19.50;99.90;;;;;;5044856;28;20091;-74
2023/09/13 11:28:08;;;;;;;8.18;2.25;;;19.30;99.90;;;;;;5051046;28;20124;-73
2023/09/13 11:30:50;;;;;;;11.50;2.65;;;19.10;99.90;;;;;;5047165;28;20515;-72
2023/09/13 11:33:17;;;;;;;7.28;1.90;;;19.00;99.90;;;;;;5044017;28;20049;-74
2023/09/13 11:35:43;;;;;;;6.30;2.00;;;19.10;99.90;;;;;;5044802;28;20037;-75
2023/09/13 11:38:13;;;;;;;7.10;2.20;;;19.40;99.90;;;;;;5040340;28;20159;-74
2023/09/13 11:40:47;;;;;;;8.95;1.95;;;19.50;99.90;;;;;;5042472;28;20119;-75
2023/09/13 11:43:25;;;;;;;10.48;1.95;;;19.40;99.90;;;;;;5042657;28;20057;-75
2023/09/13 11:45:54;;;;;;;10.35;2.60;;;19.20;99.90;;;;;;5039418;28;20504;-76
2023/09/13 11:48:40;;;;;;;10.48;2.50;;;19.40;99.90;;;;;;5042138;28;20045;-76
2023/09/13 11:51:11;;;;;;;11.02;2.10;;;19.50;99.90;;;;;;5043661;28;20075;-73
2023/09/13 11:53:38;;;;;;;8.38;2.28;;;19.50;99.90;;;;;;5032329;28;20128;-74
2023/09/13 11:56:04;;;;;;;9.77;2.50;;;19.40;99.90;;;;;;5029291;28;20049;-75
2023/09/13 11:58:31;;;;;;;9.68;2.10;;;19.30;99.90;;;;;;5022178;28;20148;-74
2023/09/13 12:01:03;;;;;;;6.70;1.92;;;19.40;99.90;;;;;;5043961;28;20053;-76
2023/09/13 12:03:36;;;;;;;5.90;1.65;;;19.40;99.90;;;;;;5043059;28;20049;-77
2023/09/13 12:06:03;;;;;;;10.88;1.83;;;19.30;99.90;;;;;;5049681;28;20060;-73
2023/09/13 12:08:29;;;;;;;6.95;2.50;;;19.20;99.90;;;;;;5025094;28;20041;-78
2023/09/13 12:10:56;;;;;;;9.55;2.17;;;19.10;99.90;;;;;;5010452;28;20040;-79
2023/09/13 12:13:42;;;;;;;7.13;2.13;;;19.00;99.90;;;;;;5010257;28;20514;-74
2023/09/13 12:16:08;;;;;;;8.20;2.25;;;18.90;99.90;;;;;;5028282;28;20053;-76
2023/09/13 12:18:36;;;;;;;7.40;2.00;;;18.90;99.90;;;;;;5024190;28;20044;-75
2023/09/13 12:21:03;;;;;;;6.05;1.95;;;19.00;99.90;;;;;;5010559;28;20558;-74
2023/09/13 12:23:33;;;;;;;11.25;2.10;;;19.20;99.90;;;;;;5028646;28;20115;-76
2023/09/13 12:25:59;;;;;;;9.40;1.95;;;19.30;99.90;;;;;;5045086;28;20052;-75
2023/09/13 12:28:33;;;;;;;9.48;2.03;;;19.20;99.90;;;;;;5043394;28;20041;-76
2023/09/13 12:31:03;;;;;;;5.20;1.35;;;19.20;99.90;;;;;;5021479;28;20057;-78
2023/09/13 12:33:29;;;;;;;8.60;1.70;;;19.10;99.90;;;;;;5040457;28;20056;-83
2023/09/13 12:35:54;;;;;;;7.32;2.28;;;19.20;99.90;;;;;;5023766;28;20082;-81
2023/09/13 12:38:21;;;;;;;7.43;2.25;;;19.50;99.90;;;;;;5028415;28;20500;-80
2023/09/13 12:40:54;;;;;;;6.80;1.80;;;19.90;99.90;;;;;;5028669;28;20052;-81
2023/09/13 12:43:30;;;;;;;6.95;2.08;;;19.90;99.90;;;;;;5047182;28;20041;-81
2023/09/13 12:45:56;;;;;;;8.32;2.40;;;19.50;99.90;;;;;;5030573;28;20048;-81